Station: Kingscote

  Atmospheric Gas Attenuation - ITU Rec 676-11   --------------- db/100km ---------------
Date Time Temp RH % AH g/m3 Dew Point Wind Direction Speed kph Gust kph Barometer mB Rainfall Since 9am 24GHz 47GHz 76GHz 122GHz 134GHz 241GHz
27 12:40 15.1 60 7.74 7.4 20 24 1026.1 0 17.7 24.6 36.4 95.1 86.7 297.6
27 12:30 15.1 61 7.87 7.6 17 24 1026.3 0 18.0 24.8 36.9 96.4 88.4 303.5
27 12:20 14.7 59 7.43 6.8 19 22 1026.3 0 17.0 24.3 35.4 92.4 83.3 285.4
27 12:10 15.1 64 8.26 8.3 15 19 1026.4 0 18.8 25.5 38.4 100.5 93.4 321.0
27 12:00 14.7 59 7.43 6.8 15 26 1026.6 0 17.0 24.3 35.4 92.4 83.3 285.5
27 11:50 14.7 57 7.18 6.3 17 20 1026.5 0 16.5 23.9 34.4 89.9 80.1 274.4
27 11:40 14.9 57 7.26 6.5 20 22 1026.7 0 16.7 24.0 34.6 90.5 80.9 277.3
27 11:30 15 60 7.69 7.3 17 22 1026.9 0 17.6 24.6 36.2 94.8 86.3 296.0
27 11:20 14.8 58 7.35 6.6 15 20 1026.9 0 16.9 24.1 35.0 91.5 82.2 281.7
27 11:10 14.9 65 8.28 8.4 15 20 1027 0 18.8 25.6 38.6 101.0 94.0 322.9
27 11:00 13.9 64 7.67 7.2 11 19 1027.2 0 17.6 24.9 36.7 95.9 87.2 299.3
27 10:50 13.8 63 7.51 6.9 13 15 1027.3 0 17.3 24.7 36.1 94.4 85.3 292.5
27 10:40 13.9 63 7.55 7 15 19 1027.3 0 17.3 24.7 36.2 94.7 85.7 293.9
27 10:30 14.1 60 7.28 6.5 15 20 1027.4 0 16.8 24.2 35.1 91.7 82.1 281.1
27 10:20 13.8 61 7.27 6.4 13 17 1027.4 0 16.7 24.3 35.2 91.9 82.3 281.8
27 10:10 14.4 61 7.54 7 15 17 1027.5 0 17.3 24.6 36.0 94.0 85.1 291.7
27 10:00 14.5 65 8.08 8 13 22 1027.7 0 18.4 25.4 38.0 99.5 91.9 315.6
27 09:50 13.6 62 7.3 6.5 13 15 1027.7 0 16.8 24.4 35.4 92.5 82.9 283.9
27 09:40 13 67 7.6 7 11 15 1027.7 0 17.5 25.1 36.8 96.3 87.4 299.6
27 09:30 13.9 64 7.67 7.2 9 13 1027.7 0 17.6 24.9 36.7 96.0 87.3 299.4
27 09:20 13.9 68 8.15 8.1 9 11 1027.6 0 18.6 25.7 38.6 101.0 93.5 321.2
27 09:10 13.5 69 8.07 7.9 7 9 1027.6 0 18.5 25.7 38.5 100.7 92.9 319.1
27 09:00 13 69 7.83 7.5 2 7 1027.7 0 18.0 25.4 37.7 98.7 90.4 310.1
27 08:50 12.2 71 7.66 7.1 2 6 1027.7 0 17.6 25.4 37.4 97.9 89.1 305.4
27 08:40 11.2 77 7.81 7.3 6 7 1027.7 0 18.0 25.9 38.5 100.8 92.2 316.3
27 08:30 11 81 8.11 7.9 6 9 1027.8 0 18.7 26.5 39.9 104.4 96.5 331.4
27 08:20 10.9 84 8.36 8.3 6 7 1027.8 0 19.2 26.9 41.0 107.3 100.1 343.8
27 08:10 10.3 87 8.33 8.2 0 0 1027.7 0 19.2 27.0 41.1 107.8 100.4 345.0
27 08:00 9.5 89 8.1 7.8 6 7 1027.7 0 18.7 26.9 40.6 106.3 98.3 337.3
27 07:50 9 91 8.03 7.6 6 7 1027.6 0 18.6 26.9 40.5 106.1 97.9 336.0
27 07:40 8.2 93 7.79 7.1 6 7 1027.4 0 18.1 26.8 39.9 104.5 95.6 327.7
27 07:30 7.5 95 7.61 6.8 2 6 1027.3 0 17.7 26.7 39.5 103.4 93.9 321.7
27 07:20 6.6 96 7.25 6 0 2 1027.2 0 17.0 26.3 38.4 100.4 89.9 307.7
27 07:10 5.9 96 6.93 5.3 7 7 1027.1 0 16.4 26.0 37.4 97.7 86.3 294.7
27 07:00 5.2 96 6.61 4.6 0 0 1027 0 15.7 25.6 36.4 95.0 82.6 281.7
27 06:50 4.5 96 6.32 3.9 0 0 1026.7 0 15.1 25.3 35.4 92.5 79.3 270.0
27 06:40 3.7 95 5.93 3 6 6 1026.6 0 14.3 24.9 34.2 89.1 74.7 253.7
27 06:30 3.7 96 5.99 3.1 7 7 1026.6 0 14.4 25.0 34.4 89.7 75.5 256.6
27 06:20 3.2 95 5.73 2.5 7 7 1026.3 0 13.9 24.7 33.5 87.4 72.4 245.6
27 06:10 3 95 5.65 2.3 7 9 1026.1 0 13.7 24.6 33.3 86.7 71.4 242.3
27 06:00 3.5 95 5.85 2.8 4 9 1026.1 0 14.1 24.8 33.9 88.3 73.7 250.4
27 05:50 3.8 95 5.96 3.1 0 0 1025.8 0 14.3 24.9 34.2 89.2 74.9 254.7
27 05:40 3.6 95 5.89 2.9 0 0 1025.7 0 14.2 24.8 34.0 88.6 74.1 251.9
27 05:30 3.1 95 5.69 2.4 0 0 1025.7 0 13.8 24.6 33.4 87.0 71.9 243.8
27 05:10 3.8 95 5.96 3.1 0 0 1025.3 0 14.3 24.8 34.2 89.1 74.9 254.6
27 04:40 4.4 95 6.21 3.7 0 0 1025.1 0 14.9 25.1 35.0 91.2 77.7 264.6
27 04:30 4.4 94 6.14 3.5 0 0 1025 0 14.7 25.0 34.7 90.4 76.8 261.2
27 04:20 4.6 95 6.29 3.9 0 0 1024.8 0 15.0 25.2 35.2 91.9 78.6 267.7
27 04:10 4.7 95 6.33 4 0 0 1024.9 0 15.1 25.2 35.3 92.2 79.1 269.4
27 04:00 4.8 94 6.31 3.9 6 7 1024.9 0 15.1 25.1 35.2 91.9 78.7 268.0
27 03:50 4.8 94 6.31 3.9 6 6 1024.8 0 15.1 25.1 35.2 91.8 78.7 268.0
27 03:40 4.9 94 6.35 4 7 7 1024.7 0 15.1 25.2 35.3 92.2 79.1 269.6
27 03:30 5.3 94 6.52 4.4 6 7 1024.8 0 15.5 25.3 35.8 93.6 81.1 276.4
27 03:20 5.3 94 6.52 4.4 6 7 1024.6 0 15.5 25.3 35.8 93.6 81.0 276.4
27 03:10 5.2 94 6.48 4.3 0 0 1024.6 0 15.4 25.3 35.7 93.3 80.6 274.8
27 03:00 5.1 94 6.43 4.2 9 13 1024.7 0 15.3 25.3 35.5 92.8 80.0 272.8
27 02:50 5.3 94 6.52 4.4 11 11 1024.5 0 15.5 25.3 35.8 93.6 81.0 276.4
27 02:40 5.4 93 6.49 4.4 9 9 1024.6 0 15.4 25.3 35.7 93.1 80.5 274.6
27 02:30 6 94 6.83 5.1 9 9 1024.6 0 16.1 25.7 36.8 96.2 84.6 288.9
27 02:20 6.3 95 7.04 5.6 7 7 1024.6 0 16.6 25.9 37.5 98.2 87.2 298.0
27 02:10 6.3 95 7.04 5.6 0 0 1024.6 0 16.6 25.9 37.5 98.2 87.2 298.0
27 02:00 6 95 6.9 5.3 0 0 1024.8 0 16.3 25.8 37.1 97.0 85.6 292.3
27 01:50 5.7 94 6.69 4.8 0 0 1024.6 0 15.8 25.5 36.4 95.0 83.0 283.2
27 01:40 5.3 93 6.45 4.3 0 0 1024.6 0 15.3 25.2 35.5 92.8 80.1 273.0
27 01:30 5.5 92 6.47 4.3 0 0 1024.7 0 15.4 25.2 35.5 92.8 80.2 273.3
27 01:20 5.9 92 6.64 4.7 0 0 1024.7 0 15.7 25.4 36.1 94.2 82.1 280.1
27 01:10 6.1 92 6.73 4.9 0 0 1024.7 0 15.9 25.5 36.3 95.0 83.1 283.7
27 01:00 6.3 91 6.74 4.9 0 0 1024.9 0 15.9 25.4 36.3 94.9 83.0 283.5
27 00:50 6.5 92 6.9 5.3 0 0 1024.9 0 16.3 25.6 36.9 96.4 85.0 290.5
27 00:40 6.6 91 6.87 5.2 0 0 1024.9 0 16.2 25.6 36.7 95.9 84.5 288.7
27 00:30 6.7 92 6.99 5.5 0 0 1025.1 0 16.4 25.7 37.2 97.2 86.1 294.1
27 00:20 6.7 91 6.92 5.3 0 0 1025 0 16.3 25.6 36.9 96.4 85.1 290.7
27 00:10 7 92 7.13 5.8 7 7 1025 0 16.7 25.9 37.6 98.4 87.6 299.7
27 00:00 7.3 92 7.27 6.1 7 11 1025.1 0 17.0 26.0 38.1 99.6 89.2 305.4
26 23:50 7.4 92 7.32 6.2 9 11 1025 0 17.1 26.1 38.2 100.0 89.8 307.4
26 23:40 7.4 93 7.4 6.3 9 11 1025 0 17.3 26.2 38.6 100.9 90.9 311.3
26 23:30 7.3 93 7.35 6.2 9 11 1025.1 0 17.2 26.2 38.4 100.5 90.4 309.3
26 23:20 7 93 7.21 5.9 11 11 1025 0 16.9 26.0 37.9 99.3 88.8 303.6
26 23:10 6.5 92 6.9 5.3 11 13 1025 0 16.3 25.7 36.9 96.4 85.0 290.5
26 23:00 6.7 92 6.99 5.5 9 11 1025.1 0 16.4 25.7 37.2 97.2 86.1 294.1
26 22:50 7.2 93 7.3 6.1 7 9 1025 0 17.1 26.1 38.2 100.0 89.8 307.2
26 22:40 7.3 93 7.35 6.2 9 9 1025 0 17.2 26.2 38.4 100.4 90.3 309.2
26 22:30 7.3 93 7.35 6.2 6 9 1025.1 0 17.2 26.2 38.4 100.5 90.4 309.3
26 22:20 6.9 93 7.16 5.8 7 9 1025.2 0 16.8 26.0 37.8 98.8 88.2 301.6
26 22:10 6.8 91 6.96 5.4 7 9 1025.2 0 16.4 25.7 37.0 96.7 85.5 292.3
26 22:00 7.1 90 7.02 5.6 6 6 1025.2 0 16.5 25.7 37.1 97.0 86.0 294.1
26 21:50 7.5 90 7.21 6 6 6 1025.1 0 16.9 25.9 37.7 98.6 88.2 301.7
26 21:40 7.7 91 7.38 6.3 6 6 1025.1 0 17.2 26.1 38.3 100.3 90.3 309.1
26 21:30 7.6 92 7.42 6.4 6 6 1025.3 0 17.3 26.2 38.6 100.9 91.0 311.5
26 21:20 7.5 93 7.45 6.4 6 6 1025.3 0 17.4 26.3 38.7 101.3 91.5 313.4
26 21:10 7.5 94 7.53 6.6 7 9 1025.2 0 17.6 26.4 39.1 102.2 92.6 317.3
26 21:00 6.7 92 6.99 5.5 7 9 1025.3 0 16.4 25.8 37.2 97.2 86.1 294.2
26 20:50 6.5 90 6.75 5 7 7 1025 0 15.9 25.4 36.3 94.7 83.0 283.3
26 20:40 7.1 91 7.1 5.7 7 9 1025 0 16.7 25.8 37.4 97.9 87.1 297.9
26 20:30 7 91 7.05 5.6 7 7 1025 0 16.6 25.8 37.3 97.5 86.5 295.9
26 20:20 7.2 90 7.07 5.7 7 7 1024.8 0 16.6 25.7 37.3 97.4 86.6 296.0
26 20:10 7.4 89 7.08 5.7 9 9 1024.8 0 16.6 25.7 37.2 97.3 86.5 295.8
26 20:00 7.9 88 7.23 6 9 9 1024.8 0 16.9 25.8 37.6 98.3 88.0 301.1
26 19:50 8.3 88 7.42 6.4 7 9 1024.6 0 17.3 26.0 38.2 99.9 90.1 308.6
26 19:40 8.6 88 7.56 6.7 6 7 1024.5 0 17.6 26.1 38.6 101.1 91.7 314.1

Last Refresh: 27-Sep-2020 12:55:16

Most of the information presented on this site is sourced from the Bureau of Meteorology.  Copyright in all material sourced from the Bureau of Meteorology resides with the Commonwealth of Australia.